Time,TemperatureF,DewpointF,PressureIn,WindDirection,WindDirectionDegrees,WindSpeedMPH,WindSpeedGustMPH,Humidity,HourlyPrecipIn,Conditions,Clouds,dailyrainin,SoftwareType,DateUTC
2013-06-16 00:04:00,59.5,43.8,29.06,North,0,0.0,0.0,56,0.00,,---,0.00,VWS V13.01,2013-06-16 04:04:00,
2013-06-16 00:09:00,59.5,43.4,29.06,North,0,0.0,0.0,55,0.00,,---,0.00,VWS V13.01,2013-06-16 04:09:00,
2013-06-16 00:14:00,59.5,43.4,29.06,North,0,0.0,0.0,55,0.00,,---,0.00,VWS V13.01,2013-06-16 04:14:00,
2013-06-16 00:19:00,59.4,42.7,29.06,North,0,0.0,0.0,54,0.00,,---,0.00,VWS V13.01,2013-06-16 04:19:00,
2013-06-16 00:24:00,59.2,42.6,29.06,North,0,0.0,0.0,54,0.00,,---,0.00,VWS V13.01,2013-06-16 04:24:00,
2013-06-16 00:29:00,58.8,42.2,29.06,North,0,0.0,0.0,54,0.00,,---,0.00,VWS V13.01,2013-06-16 04:29:00,
2013-06-16 00:34:00,58.5,42.8,29.03,North,0,0.0,0.0,56,0.00,,---,0.00,VWS V13.01,2013-06-16 04:34:00,
2013-06-16 00:39:00,58.1,44.3,29.03,North,0,0.0,0.0,60,0.00,,---,0.00,VWS V13.01,2013-06-16 04:39:00,
2013-06-16 00:44:00,57.9,45.4,29.03,North,0,0.0,0.0,63,0.00,,---,0.00,VWS V13.01,2013-06-16 04:44:00,
2013-06-16 00:49:00,57.9,45.4,29.06,North,0,0.0,0.0,63,0.00,,---,0.00,VWS V13.01,2013-06-16 04:49:00,
2013-06-16 00:54:00,57.9,45.4,29.06,North,0,0.0,0.0,63,0.00,,---,0.00,VWS V13.01,2013-06-16 04:54:00,
2013-06-16 00:59:00,57.7,45.7,29.06,North,0,0.0,0.0,64,0.00,,---,0.00,VWS V13.01,2013-06-16 04:59:00,
2013-06-16 01:04:00,57.9,45.8,29.06,North,0,0.0,0.0,64,0.00,,---,0.00,VWS V13.01,2013-06-16 05:04:00,
2013-06-16 01:09:00,57.9,45.0,29.06,North,0,0.0,0.0,62,0.00,,---,0.00,VWS V13.01,2013-06-16 05:09:00,
2013-06-16 01:14:00,57.9,45.0,29.06,North,0,0.0,0.0,62,0.00,,---,0.00,VWS V13.01,2013-06-16 05:14:00,
2013-06-16 01:19:00,57.6,43.4,29.06,North,0,0.0,0.0,59,0.00,,---,0.00,VWS V13.01,2013-06-16 05:19:00,
2013-06-16 01:24:00,57.6,43.8,29.06,North,0,0.0,0.0,60,0.00,,---,0.00,VWS V13.01,2013-06-16 05:24:00,
2013-06-16 01:29:00,57.6,43.8,29.06,North,0,0.0,0.0,60,0.00,,---,0.00,VWS V13.01,2013-06-16 05:29:00,
2013-06-16 01:34:00,57.6,43.8,29.03,North,0,0.0,0.0,60,0.00,,---,0.00,VWS V13.01,2013-06-16 05:34:00,
2013-06-16 01:39:00,57.6,43.4,29.03,North,0,0.0,0.0,59,0.00,,---,0.00,VWS V13.01,2013-06-16 05:39:00,
2013-06-16 01:44:00,57.6,42.9,29.03,North,0,0.0,0.0,58,0.00,,---,0.00,VWS V13.01,2013-06-16 05:44:00,
2013-06-16 01:49:00,57.4,42.3,29.06,North,0,0.0,0.0,57,0.00,,---,0.00,VWS V13.01,2013-06-16 05:49:00,
2013-06-16 01:54:00,57.0,41.5,29.06,North,0,0.0,0.0,56,0.00,,---,0.00,VWS V13.01,2013-06-16 05:54:00,
2013-06-16 01:59:00,56.8,41.8,29.06,North,0,0.0,0.0,57,0.00,,---,0.00,VWS V13.01,2013-06-16 05:59:00,
2013-06-16 02:04:00,57.0,42.0,29.06,North,0,0.0,0.0,57,0.00,,---,0.00,VWS V13.01,2013-06-16 06:04:00,
2013-06-16 02:14:00,56.8,41.8,29.06,North,0,0.0,0.0,57,0.00,,---,0.00,VWS V13.01,2013-06-16 06:14:00,
2013-06-16 02:19:00,56.7,41.2,29.03,North,0,0.0,0.0,56,0.00,,---,0.00,VWS V13.01,2013-06-16 06:19:00,
2013-06-16 02:29:00,56.1,42.4,29.03,North,0,0.0,0.0,60,0.00,,---,0.00,VWS V13.01,2013-06-16 06:29:00,
2013-06-16 02:39:00,56.1,42.4,29.06,North,0,0.0,0.0,60,0.00,,---,0.00,VWS V13.01,2013-06-16 06:39:00,
2013-06-16 02:44:00,56.1,42.4,29.06,North,0,0.0,0.0,60,0.00,,---,0.00,VWS V13.01,2013-06-16 06:44:00,
2013-06-16 02:49:00,55.9,41.8,29.06,North,0,0.0,0.0,59,0.00,,---,0.00,VWS V13.01,2013-06-16 06:49:00,
2013-06-16 02:54:00,55.6,41.5,29.06,North,0,0.0,0.0,59,0.00,,---,0.00,VWS V13.01,2013-06-16 06:54:00,
2013-06-16 02:59:00,55.4,41.8,29.06,North,0,0.0,0.0,60,0.00,,---,0.00,VWS V13.01,2013-06-16 06:59:00,
2013-06-16 03:04:00,55.2,42.4,29.03,North,0,0.0,0.0,62,0.00,,---,0.00,VWS V13.01,2013-06-16 07:04:00,
2013-06-16 03:09:00,55.0,43.1,29.03,North,0,0.0,0.0,64,0.00,,---,0.00,VWS V13.01,2013-06-16 07:09:00,
2013-06-16 03:14:00,55.0,43.1,29.03,North,0,0.0,0.0,64,0.00,,---,0.00,VWS V13.01,2013-06-16 07:14:00,
2013-06-16 03:24:00,55.4,43.4,29.03,North,0,0.0,0.0,64,0.00,,---,0.00,VWS V13.01,2013-06-16 07:24:00,
2013-06-16 03:29:00,55.2,42.4,29.03,North,0,0.0,0.0,62,0.00,,---,0.00,VWS V13.01,2013-06-16 07:29:00,
2013-06-16 03:34:00,55.0,42.3,29.03,North,0,0.0,0.0,62,0.00,,---,0.00,VWS V13.01,2013-06-16 07:34:00,
2013-06-16 03:39:00,55.0,42.7,29.03,North,0,0.0,0.0,63,0.00,,---,0.00,VWS V13.01,2013-06-16 07:39:00,
2013-06-16 03:44:00,55.0,42.3,29.03,North,0,0.0,0.0,62,0.00,,---,0.00,VWS V13.01,2013-06-16 07:44:00,
2013-06-16 03:49:00,54.9,42.1,29.03,North,0,0.0,0.0,62,0.00,,---,0.00,VWS V13.01,2013-06-16 07:49:00,
2013-06-16 03:54:00,54.7,41.9,29.03,North,0,0.0,0.0,62,0.00,,---,0.00,VWS V13.01,2013-06-16 07:54:00,
2013-06-16 03:59:00,54.7,41.9,29.03,North,0,0.0,0.0,62,0.00,,---,0.00,VWS V13.01,2013-06-16 07:59:00,
2013-06-16 04:04:00,54.7,41.9,29.03,North,0,0.0,0.0,62,0.00,,---,0.00,VWS V13.01,2013-06-16 08:04:00,
2013-06-16 04:09:00,54.7,41.9,29.03,North,0,0.0,0.0,62,0.00,,---,0.00,VWS V13.01,2013-06-16 08:09:00,
2013-06-16 04:14:00,54.9,42.1,29.03,North,0,0.0,0.0,62,0.00,,---,0.00,VWS V13.01,2013-06-16 08:14:00,
2013-06-16 04:19:00,54.7,41.9,29.03,North,0,0.0,0.0,62,0.00,,---,0.00,VWS V13.01,2013-06-16 08:19:00,
2013-06-16 04:24:00,54.7,41.9,29.03,North,0,0.0,0.0,62,0.00,,---,0.00,VWS V13.01,2013-06-16 08:24:00,
2013-06-16 04:29:00,54.5,41.3,29.03,North,0,0.0,0.0,61,0.00,,---,0.00,VWS V13.01,2013-06-16 08:29:00,
2013-06-16 04:34:00,54.3,42.0,29.03,North,0,0.0,0.0,63,0.00,,---,0.00,VWS V13.01,2013-06-16 08:34:00,
2013-06-16 04:39:00,54.1,43.0,29.03,North,0,0.0,0.0,66,0.00,,---,0.00,VWS V13.01,2013-06-16 08:39:00,
2013-06-16 04:44:00,54.0,43.7,29.03,North,0,0.0,0.0,68,0.00,,---,0.00,VWS V13.01,2013-06-16 08:44:00,
2013-06-16 04:49:00,54.0,44.0,29.03,North,0,0.0,0.0,69,0.00,,---,0.00,VWS V13.01,2013-06-16 08:49:00,
2013-06-16 04:54:00,54.1,44.6,29.03,North,0,0.0,0.0,70,0.00,,---,0.00,VWS V13.01,2013-06-16 08:54:00,
2013-06-16 04:59:00,54.1,44.6,29.03,North,0,0.0,0.0,70,0.00,,---,0.00,VWS V13.01,2013-06-16 08:59:00,
2013-06-16 05:04:00,54.1,45.0,29.00,North,0,0.0,0.0,71,0.00,,---,0.00,VWS V13.01,2013-06-16 09:04:00,
2013-06-16 05:09:00,54.1,45.0,29.00,North,0,0.0,0.0,71,0.00,,---,0.00,VWS V13.01,2013-06-16 09:09:00,
2013-06-16 05:14:00,54.3,45.5,29.00,North,0,0.0,0.0,72,0.00,,---,0.00,VWS V13.01,2013-06-16 09:14:00,
2013-06-16 05:19:00,54.1,45.0,29.03,North,0,0.0,0.0,71,0.00,,---,0.00,VWS V13.01,2013-06-16 09:19:00,
2013-06-16 05:24:00,54.3,45.1,29.03,North,0,0.0,0.0,71,0.00,,---,0.00,VWS V13.01,2013-06-16 09:24:00,
2013-06-16 05:29:00,54.7,45.8,29.03,North,0,0.0,0.0,72,0.00,,---,0.00,VWS V13.01,2013-06-16 09:29:00,
2013-06-16 05:34:00,54.9,46.0,29.00,North,0,0.0,0.0,72,0.00,,---,0.00,VWS V13.01,2013-06-16 09:34:00,
2013-06-16 05:39:00,54.9,45.3,29.00,North,0,0.0,0.0,70,0.00,,---,0.00,VWS V13.01,2013-06-16 09:39:00,
2013-06-16 05:44:00,54.7,44.7,29.00,North,0,0.0,0.0,69,0.00,,---,0.00,VWS V13.01,2013-06-16 09:44:00,
2013-06-16 05:49:00,55.0,45.5,29.03,North,0,0.0,0.0,70,0.00,,---,0.00,VWS V13.01,2013-06-16 09:49:00,
2013-06-16 05:54:00,55.2,45.6,29.03,North,0,0.0,0.0,70,0.00,,---,0.00,VWS V13.01,2013-06-16 09:54:00,
2013-06-16 05:59:00,55.0,45.8,29.03,North,0,0.0,0.0,71,0.00,,---,0.00,VWS V13.01,2013-06-16 09:59:00,
2013-06-16 06:04:00,56.3,47.8,29.00,North,0,0.0,0.0,73,0.00,,---,0.00,VWS V13.01,2013-06-16 10:04:00,
2013-06-16 06:09:00,59.0,46.4,29.00,North,0,0.0,0.0,63,0.00,,---,0.00,VWS V13.01,2013-06-16 10:09:00,
2013-06-16 06:14:00,62.1,42.7,29.00,North,0,0.0,0.0,49,0.00,,---,0.00,VWS V13.01,2013-06-16 10:14:00,
2013-06-16 06:19:00,60.4,38.4,29.00,North,0,0.0,0.0,44,0.00,,---,0.00,VWS V13.01,2013-06-16 10:19:00,
2013-06-16 06:24:00,59.2,38.4,29.00,North,0,0.0,0.0,46,0.00,,---,0.00,VWS V13.01,2013-06-16 10:24:00,
2013-06-16 06:29:00,58.3,40.2,29.00,North,0,0.0,0.0,51,0.00,,---,0.00,VWS V13.01,2013-06-16 10:29:00,
2013-06-16 06:34:00,57.4,41.8,29.00,North,0,0.0,0.0,56,0.00,,---,0.00,VWS V13.01,2013-06-16 10:34:00,
2013-06-16 06:39:00,57.2,42.6,29.00,North,0,0.0,0.0,58,0.00,,---,0.00,VWS V13.01,2013-06-16 10:39:00,
2013-06-16 06:44:00,57.2,45.2,29.00,North,0,0.0,0.0,64,0.00,,---,0.00,VWS V13.01,2013-06-16 10:44:00,
2013-06-16 06:49:00,57.2,46.8,29.00,North,0,0.0,0.0,68,0.00,,---,0.00,VWS V13.01,2013-06-16 10:49:00,
2013-06-16 06:54:00,57.4,47.3,29.00,North,0,0.0,0.0,69,0.00,,---,0.00,VWS V13.01,2013-06-16 10:54:00,
2013-06-16 06:59:00,57.6,47.9,29.00,North,0,0.0,0.0,70,0.00,,---,0.00,VWS V13.01,2013-06-16 10:59:00,
2013-06-16 07:04:00,57.6,48.2,29.00,North,0,0.0,0.0,71,0.00,,---,0.00,VWS V13.01,2013-06-16 11:04:00,
2013-06-16 07:09:00,57.7,47.7,29.00,North,0,0.0,0.0,69,0.00,,---,0.00,VWS V13.01,2013-06-16 11:09:00,
2013-06-16 07:14:00,58.1,48.4,29.00,North,0,0.0,0.0,70,0.00,,---,0.00,VWS V13.01,2013-06-16 11:14:00,
2013-06-16 07:24:00,58.3,48.2,29.00,North,0,0.0,0.0,69,0.00,,---,0.00,VWS V13.01,2013-06-16 11:24:00,
2013-06-16 07:29:00,58.5,48.7,29.00,North,0,0.0,0.0,70,0.00,,---,0.00,VWS V13.01,2013-06-16 11:29:00,
2013-06-16 07:34:00,58.5,48.7,29.00,North,0,0.0,0.0,70,0.00,,---,0.00,VWS V13.01,2013-06-16 11:34:00,
2013-06-16 07:39:00,58.8,49.1,29.00,North,0,0.0,0.0,70,0.00,,---,0.00,VWS V13.01,2013-06-16 11:39:00,
2013-06-16 07:44:00,59.2,49.4,29.00,North,0,0.0,0.0,70,0.00,,---,0.00,VWS V13.01,2013-06-16 11:44:00,
2013-06-16 07:49:00,59.2,47.8,29.00,North,0,0.0,0.0,66,0.00,,---,0.00,VWS V13.01,2013-06-16 11:49:00,
2013-06-16 07:54:00,59.4,48.4,29.00,North,0,0.0,0.0,67,0.00,,---,0.00,VWS V13.01,2013-06-16 11:54:00,
2013-06-16 07:59:00,59.7,48.8,29.00,North,0,0.0,0.0,67,0.00,,---,0.00,VWS V13.01,2013-06-16 11:59:00,
2013-06-16 08:04:00,59.9,48.9,28.97,North,0,0.0,0.0,67,0.00,,---,0.00,VWS V13.01,2013-06-16 12:04:00,
2013-06-16 08:09:00,59.9,48.9,28.97,North,0,0.0,0.0,67,0.00,,---,0.00,VWS V13.01,2013-06-16 12:09:00,
2013-06-16 08:14:00,60.1,48.3,28.97,North,0,0.0,0.0,65,0.00,,---,0.00,VWS V13.01,2013-06-16 12:14:00,
2013-06-16 08:19:00,60.8,49.8,28.97,North,0,0.0,0.0,67,0.00,,---,0.00,VWS V13.01,2013-06-16 12:19:00,
2013-06-16 08:24:00,61.9,51.6,28.97,North,0,0.0,0.0,69,0.00,,---,0.00,VWS V13.01,2013-06-16 12:24:00,
2013-06-16 08:29:00,62.1,46.7,28.97,North,0,0.0,0.0,57,0.00,,---,0.00,VWS V13.01,2013-06-16 12:29:00,
2013-06-16 08:34:00,62.2,44.9,29.00,North,0,0.0,0.0,53,0.00,,---,0.00,VWS V13.01,2013-06-16 12:34:00,
2013-06-16 08:39:00,62.4,45.6,29.00,North,0,0.0,0.0,54,0.00,,---,0.00,VWS V13.01,2013-06-16 12:39:00,
2013-06-16 08:44:00,62.6,45.2,29.00,North,0,0.0,0.0,53,0.00,,---,0.00,VWS V13.01,2013-06-16 12:44:00,
2013-06-16 08:49:00,63.0,47.5,28.97,North,0,0.0,0.0,57,0.00,,---,0.00,VWS V13.01,2013-06-16 12:49:00,
2013-06-16 08:54:00,63.3,46.4,28.97,North,0,0.0,0.0,54,0.00,,---,0.00,VWS V13.01,2013-06-16 12:54:00,
2013-06-16 08:59:00,63.9,47.9,28.97,North,0,0.0,0.0,56,0.00,,---,0.00,VWS V13.01,2013-06-16 12:59:00,
2013-06-16 09:04:00,64.4,46.9,28.97,North,0,0.0,0.0,53,0.00,,---,0.00,VWS V13.01,2013-06-16 13:04:00,
2013-06-16 09:14:00,65.3,49.7,28.97,North,0,0.0,0.0,57,0.00,,---,0.00,VWS V13.01,2013-06-16 13:14:00,
2013-06-16 09:19:00,65.7,48.6,28.94,North,0,0.0,0.0,54,0.00,,---,0.00,VWS V13.01,2013-06-16 13:19:00,
2013-06-16 09:24:00,66.0,47.4,28.94,North,0,0.0,0.0,51,0.00,,---,0.00,VWS V13.01,2013-06-16 13:24:00,
2013-06-16 09:29:00,66.4,44.4,28.94,North,0,0.0,0.0,45,0.00,,---,0.00,VWS V13.01,2013-06-16 13:29:00,
2013-06-16 09:34:00,66.6,42.8,28.94,North,0,0.0,0.0,42,0.00,,---,0.00,VWS V13.01,2013-06-16 13:34:00,
2013-06-16 09:39:00,66.9,42.5,28.94,North,0,0.0,0.0,41,0.00,,---,0.00,VWS V13.01,2013-06-16 13:39:00,
2013-06-16 09:49:00,67.3,42.2,28.94,North,0,0.0,0.0,40,0.00,,---,0.00,VWS V13.01,2013-06-16 13:49:00,
2013-06-16 09:59:00,67.8,41.3,28.94,North,0,0.0,0.0,38,0.00,,---,0.00,VWS V13.01,2013-06-16 13:59:00,
2013-06-16 10:04:00,68.4,41.1,28.94,North,0,0.0,0.0,37,0.00,,---,0.00,VWS V13.01,2013-06-16 14:04:00,
2013-06-16 10:09:00,68.9,39.4,28.94,North,0,0.0,0.0,34,0.00,,---,0.00,VWS V13.01,2013-06-16 14:09:00,
2013-06-16 10:14:00,69.3,39.7,28.94,North,0,0.0,0.0,34,0.00,,---,0.00,VWS V13.01,2013-06-16 14:14:00,
2013-06-16 10:19:00,69.4,39.1,28.94,North,0,0.0,0.0,33,0.00,,---,0.00,VWS V13.01,2013-06-16 14:19:00,
2013-06-16 10:24:00,69.4,39.1,28.94,North,0,0.0,0.0,33,0.00,,---,0.00,VWS V13.01,2013-06-16 14:24:00,
2013-06-16 10:29:00,69.6,39.3,28.94,North,0,0.0,0.0,33,0.00,,---,0.00,VWS V13.01,2013-06-16 14:29:00,
2013-06-16 10:34:00,70.0,39.6,28.94,North,0,0.0,0.0,33,0.00,,---,0.00,VWS V13.01,2013-06-16 14:34:00,
2013-06-16 10:39:00,70.5,39.3,28.94,North,0,0.0,0.0,32,0.00,,---,0.00,VWS V13.01,2013-06-16 14:39:00,
2013-06-16 10:44:00,70.9,38.8,28.94,North,0,0.0,0.0,31,0.00,,---,0.00,VWS V13.01,2013-06-16 14:44:00,
2013-06-16 10:49:00,71.6,37.7,28.94,North,0,0.0,0.0,29,0.00,,---,0.00,VWS V13.01,2013-06-16 14:49:00,
2013-06-16 10:54:00,72.1,35.4,28.94,North,0,0.0,0.0,26,0.00,,---,0.00,VWS V13.01,2013-06-16 14:54:00,
2013-06-16 10:59:00,72.7,32.8,28.94,North,0,0.0,0.0,23,0.00,,---,0.00,VWS V13.01,2013-06-16 14:59:00,
2013-06-16 11:04:00,73.4,37.4,28.91,North,0,0.0,0.0,27,0.00,,---,0.00,VWS V13.01,2013-06-16 15:04:00,
2013-06-16 11:09:00,73.9,32.7,28.91,North,0,0.0,0.0,22,0.00,,---,0.00,VWS V13.01,2013-06-16 15:09:00,
2013-06-16 11:14:00,74.5,32.0,28.91,North,0,0.0,0.0,21,0.00,,---,0.00,VWS V13.01,2013-06-16 15:14:00,
2013-06-16 11:19:00,75.0,32.5,28.91,North,0,0.0,0.0,21,0.00,,---,0.00,VWS V13.01,2013-06-16 15:19:00,
2013-06-16 11:24:00,75.0,32.5,28.91,North,0,0.0,0.0,21,0.00,,---,0.00,VWS V13.01,2013-06-16 15:24:00,
2013-06-16 11:29:00,75.4,32.8,28.91,North,0,0.0,0.0,21,0.00,,---,0.00,VWS V13.01,2013-06-16 15:29:00,
2013-06-16 11:34:00,76.1,32.2,28.91,North,0,0.0,0.0,20,0.00,,---,0.00,VWS V13.01,2013-06-16 15:34:00,
2013-06-16 11:39:00,76.3,29.7,28.91,North,0,0.0,0.0,18,0.00,,---,0.00,VWS V13.01,2013-06-16 15:39:00,
2013-06-16 11:44:00,76.3,29.7,28.91,North,0,0.0,0.0,18,0.00,,---,0.00,VWS V13.01,2013-06-16 15:44:00,
2013-06-16 11:49:00,76.5,32.5,28.88,North,0,0.0,0.0,20,0.00,,---,0.00,VWS V13.01,2013-06-16 15:49:00,
2013-06-16 11:54:00,76.5,33.7,28.88,North,0,0.0,0.0,21,0.00,,---,0.00,VWS V13.01,2013-06-16 15:54:00,
2013-06-16 11:59:00,77.0,32.9,28.88,North,0,0.0,0.0,20,0.00,,---,0.00,VWS V13.01,2013-06-16 15:59:00,
2013-06-16 12:04:00,77.2,33.0,28.91,North,0,0.0,0.0,20,0.00,,---,0.00,VWS V13.01,2013-06-16 16:04:00,
2013-06-16 12:09:00,77.4,30.6,28.91,North,0,0.0,0.0,18,0.00,,---,0.00,VWS V13.01,2013-06-16 16:09:00,
2013-06-16 12:14:00,77.0,30.3,28.91,North,0,0.0,0.0,18,0.00,,---,0.00,VWS V13.01,2013-06-16 16:14:00,
2013-06-16 12:19:00,77.0,32.9,28.91,North,0,0.0,0.0,20,0.00,,---,0.00,VWS V13.01,2013-06-16 16:19:00,
2013-06-16 12:24:00,77.0,34.1,28.91,North,0,0.0,0.0,21,0.00,,---,0.00,VWS V13.01,2013-06-16 16:24:00,
2013-06-16 12:29:00,77.0,32.9,28.91,North,0,0.0,0.0,20,0.00,,---,0.00,VWS V13.01,2013-06-16 16:29:00,
2013-06-16 12:34:00,77.0,32.9,28.88,North,0,0.0,0.0,20,0.00,,---,0.00,VWS V13.01,2013-06-16 16:34:00,
2013-06-16 12:39:00,76.8,32.8,28.88,North,0,0.0,0.0,20,0.00,,---,0.00,VWS V13.01,2013-06-16 16:39:00,
2013-06-16 12:44:00,77.0,32.9,28.88,North,0,0.0,0.0,20,0.00,,---,0.00,VWS V13.01,2013-06-16 16:44:00,
2013-06-16 12:49:00,77.4,33.2,28.88,North,0,0.0,0.0,20,0.00,,---,0.00,VWS V13.01,2013-06-16 16:49:00,
2013-06-16 12:54:00,78.1,33.8,28.88,North,0,0.0,0.0,20,0.00,,---,0.00,VWS V13.01,2013-06-16 16:54:00,
2013-06-16 12:59:00,78.6,34.2,28.88,North,0,0.0,0.0,20,0.00,,---,0.00,VWS V13.01,2013-06-16 16:59:00,
2013-06-16 13:09:00,77.7,33.5,28.88,North,0,0.0,0.0,20,0.00,,---,0.00,VWS V13.01,2013-06-16 17:09:00,
2013-06-16 13:19:00,76.3,33.5,28.88,North,0,0.0,0.0,21,0.00,,---,0.00,VWS V13.01,2013-06-16 17:19:00,
2013-06-16 13:24:00,75.7,31.9,28.88,North,0,0.0,0.0,20,0.00,,---,0.00,VWS V13.01,2013-06-16 17:24:00,
2013-06-16 13:29:00,75.2,32.6,28.88,North,0,0.0,0.0,21,0.00,,---,0.00,VWS V13.01,2013-06-16 17:29:00,
2013-06-16 13:34:00,75.0,32.5,28.88,North,0,0.0,0.0,21,0.00,,---,0.00,VWS V13.01,2013-06-16 17:34:00,
2013-06-16 13:39:00,74.7,32.2,28.88,North,0,0.0,0.0,21,0.00,,---,0.00,VWS V13.01,2013-06-16 17:39:00,
2013-06-16 13:44:00,74.3,31.9,28.88,North,0,0.0,0.0,21,0.00,,---,0.00,VWS V13.01,2013-06-16 17:44:00,
2013-06-16 13:49:00,74.1,31.7,28.85,North,0,0.0,0.0,21,0.00,,---,0.00,VWS V13.01,2013-06-16 17:49:00,
2013-06-16 13:54:00,74.1,32.9,28.85,North,0,0.0,0.0,22,0.00,,---,0.00,VWS V13.01,2013-06-16 17:54:00,
2013-06-16 13:59:00,73.8,32.6,28.85,North,0,0.0,0.0,22,0.00,,---,0.00,VWS V13.01,2013-06-16 17:59:00,
2013-06-16 14:04:00,73.6,33.5,28.85,North,0,0.0,0.0,23,0.00,,---,0.00,VWS V13.01,2013-06-16 18:04:00,
2013-06-16 14:09:00,73.9,33.8,28.85,North,0,0.0,0.0,23,0.00,,---,0.00,VWS V13.01,2013-06-16 18:09:00,
2013-06-16 14:14:00,74.5,33.2,28.85,North,0,0.0,0.0,22,0.00,,---,0.00,VWS V13.01,2013-06-16 18:14:00,
2013-06-16 14:19:00,75.0,33.6,28.85,North,0,0.0,0.0,22,0.00,,---,0.00,VWS V13.01,2013-06-16 18:19:00,
2013-06-16 14:24:00,75.4,32.8,28.85,North,0,0.0,0.0,21,0.00,,---,0.00,VWS V13.01,2013-06-16 18:24:00,
2013-06-16 14:29:00,75.4,33.9,28.85,North,0,0.0,0.0,22,0.00,,---,0.00,VWS V13.01,2013-06-16 18:29:00,
2013-06-16 14:34:00,75.7,34.2,28.82,North,0,0.0,0.0,22,0.00,,---,0.00,VWS V13.01,2013-06-16 18:34:00,
2013-06-16 14:39:00,76.5,34.8,28.82,North,0,0.0,0.0,22,0.00,,---,0.00,VWS V13.01,2013-06-16 18:39:00,
2013-06-16 14:44:00,76.8,34.0,28.82,North,0,0.0,0.0,21,0.00,,---,0.00,VWS V13.01,2013-06-16 18:44:00,
2013-06-16 14:49:00,77.0,34.1,28.82,North,0,0.0,0.0,21,0.00,,---,0.00,VWS V13.01,2013-06-16 18:49:00,
2013-06-16 14:54:00,77.2,33.0,28.82,North,0,0.0,0.0,20,0.00,,---,0.00,VWS V13.01,2013-06-16 18:54:00,
2013-06-16 14:59:00,77.0,32.9,28.82,North,0,0.0,0.0,20,0.00,,---,0.00,VWS V13.01,2013-06-16 18:59:00,
2013-06-16 15:04:00,77.2,34.3,28.82,North,0,0.0,0.0,21,0.00,,---,0.00,VWS V13.01,2013-06-16 19:04:00,
2013-06-16 15:09:00,77.7,34.7,28.82,North,0,0.0,0.0,21,0.00,,---,0.00,VWS V13.01,2013-06-16 19:09:00,
2013-06-16 15:14:00,78.1,35.0,28.82,North,0,0.0,0.0,21,0.00,,---,0.00,VWS V13.01,2013-06-16 19:14:00,
2013-06-16 15:19:00,78.6,34.2,28.82,North,0,0.0,0.0,20,0.00,,---,0.00,VWS V13.01,2013-06-16 19:19:00,
2013-06-16 15:24:00,78.6,34.2,28.82,North,0,0.0,0.0,20,0.00,,---,0.00,VWS V13.01,2013-06-16 19:24:00,
2013-06-16 15:29:00,79.0,34.5,28.82,North,0,0.0,0.0,20,0.00,,---,0.00,VWS V13.01,2013-06-16 19:29:00,
2013-06-16 15:34:00,78.6,34.2,28.82,North,0,0.0,0.0,20,0.00,,---,0.00,VWS V13.01,2013-06-16 19:34:00,
2013-06-16 15:39:00,78.3,35.2,28.82,North,0,0.0,0.0,21,0.00,,---,0.00,VWS V13.01,2013-06-16 19:39:00,
2013-06-16 15:44:00,78.1,35.0,28.82,North,0,0.0,0.0,21,0.00,,---,0.00,VWS V13.01,2013-06-16 19:44:00,
2013-06-16 15:49:00,78.3,35.2,28.79,North,0,0.0,0.0,21,0.00,,---,0.00,VWS V13.01,2013-06-16 19:49:00,
2013-06-16 15:54:00,78.8,34.4,28.79,North,0,0.0,0.0,20,0.00,,---,0.00,VWS V13.01,2013-06-16 19:54:00,
2013-06-16 15:59:00,78.8,34.4,28.79,North,0,0.0,0.0,20,0.00,,---,0.00,VWS V13.01,2013-06-16 19:59:00,
2013-06-16 16:09:00,78.8,35.6,28.79,North,0,0.0,0.0,21,0.00,,---,0.00,VWS V13.01,2013-06-16 20:09:00,
2013-06-16 16:14:00,78.6,35.5,28.79,North,0,0.0,0.0,21,0.00,,---,0.00,VWS V13.01,2013-06-16 20:14:00,
2013-06-16 16:19:00,78.8,35.6,28.82,North,0,0.0,0.0,21,0.00,,---,0.00,VWS V13.01,2013-06-16 20:19:00,
2013-06-16 16:24:00,78.8,35.6,28.82,North,0,0.0,0.0,21,0.00,,---,0.00,VWS V13.01,2013-06-16 20:24:00,
2013-06-16 16:29:00,78.1,36.2,28.82,North,0,0.0,0.0,22,0.00,,---,0.00,VWS V13.01,2013-06-16 20:29:00,
2013-06-16 16:34:00,77.5,35.7,28.82,North,0,0.0,0.0,22,0.00,,---,0.00,VWS V13.01,2013-06-16 20:34:00,
2013-06-16 16:39:00,77.2,37.6,28.82,North,0,0.0,0.0,24,0.00,,---,0.00,VWS V13.01,2013-06-16 20:39:00,
2013-06-16 16:44:00,76.3,39.9,28.82,North,0,0.0,0.0,27,0.00,,---,0.00,VWS V13.01,2013-06-16 20:44:00,
2013-06-16 16:54:00,75.9,40.5,28.82,North,0,0.0,0.0,28,0.00,,---,0.00,VWS V13.01,2013-06-16 20:54:00,
2013-06-16 16:59:00,76.3,41.7,28.82,North,0,0.0,0.0,29,0.00,,---,0.00,VWS V13.01,2013-06-16 20:59:00,
2013-06-16 17:04:00,76.8,41.3,28.79,North,0,0.0,0.0,28,0.00,,---,0.00,VWS V13.01,2013-06-16 21:04:00,
2013-06-16 17:09:00,78.8,40.0,28.79,North,0,0.0,0.0,25,0.00,,---,0.00,VWS V13.01,2013-06-16 21:09:00,
2013-06-16 17:14:00,79.2,39.3,28.79,North,0,0.0,0.0,24,0.00,,---,0.00,VWS V13.01,2013-06-16 21:14:00,
2013-06-16 17:19:00,79.3,39.5,28.79,North,0,0.0,0.0,24,0.00,,---,0.00,VWS V13.01,2013-06-16 21:19:00,
2013-06-16 17:24:00,80.1,41.1,28.79,North,0,0.0,0.0,25,0.00,,---,0.00,VWS V13.01,2013-06-16 21:24:00,
2013-06-16 17:29:00,79.5,40.7,28.79,North,0,0.0,0.0,25,0.00,,---,0.00,VWS V13.01,2013-06-16 21:29:00,
2013-06-16 17:34:00,79.3,40.5,28.79,North,0,0.0,0.0,25,0.00,,---,0.00,VWS V13.01,2013-06-16 21:34:00,
2013-06-16 17:39:00,79.0,42.2,28.79,North,0,0.0,0.0,27,0.00,,---,0.00,VWS V13.01,2013-06-16 21:39:00,
2013-06-16 17:49:00,78.3,43.4,28.79,North,0,0.0,0.0,29,0.00,,---,0.00,VWS V13.01,2013-06-16 21:49:00,
2013-06-16 17:54:00,78.1,44.2,28.79,North,0,0.0,0.0,30,0.00,,---,0.00,VWS V13.01,2013-06-16 21:54:00,
2013-06-16 17:59:00,77.9,44.0,28.79,North,0,0.0,0.0,30,0.00,,---,0.00,VWS V13.01,2013-06-16 21:59:00,
2013-06-16 18:04:00,77.7,43.8,28.79,North,0,0.0,0.0,30,0.00,,---,0.00,VWS V13.01,2013-06-16 22:04:00,
2013-06-16 18:09:00,77.4,43.5,28.79,North,0,0.0,0.0,30,0.00,,---,0.00,VWS V13.01,2013-06-16 22:09:00,
2013-06-16 18:14:00,77.2,43.4,28.79,North,0,0.0,0.0,30,0.00,,---,0.00,VWS V13.01,2013-06-16 22:14:00,
2013-06-16 18:19:00,77.0,43.2,28.79,North,0,0.0,0.0,30,0.00,,---,0.00,VWS V13.01,2013-06-16 22:19:00,
2013-06-16 18:24:00,76.8,43.9,28.79,North,0,0.0,0.0,31,0.00,,---,0.00,VWS V13.01,2013-06-16 22:24:00,
2013-06-16 18:29:00,76.6,43.8,28.79,North,0,0.0,0.0,31,0.00,,---,0.00,VWS V13.01,2013-06-16 22:29:00,
2013-06-16 18:34:00,76.5,42.8,28.79,North,0,0.0,0.0,30,0.00,,---,0.00,VWS V13.01,2013-06-16 22:34:00,
2013-06-16 18:39:00,76.5,42.8,28.79,North,0,0.0,0.0,30,0.00,,---,0.00,VWS V13.01,2013-06-16 22:39:00,
2013-06-16 18:44:00,76.3,41.7,28.79,North,0,0.0,0.0,29,0.00,,---,0.00,VWS V13.01,2013-06-16 22:44:00,
2013-06-16 18:49:00,76.3,39.9,28.79,North,0,0.0,0.0,27,0.00,,---,0.00,VWS V13.01,2013-06-16 22:49:00,
2013-06-16 18:59:00,76.5,40.0,28.79,North,0,0.0,0.0,27,0.00,,---,0.00,VWS V13.01,2013-06-16 22:59:00,
2013-06-16 19:04:00,76.5,40.0,28.79,North,0,0.0,0.0,27,0.00,,---,0.00,VWS V13.01,2013-06-16 23:04:00,
2013-06-16 19:14:00,76.8,40.3,28.79,North,0,0.0,0.0,27,0.00,,---,0.00,VWS V13.01,2013-06-16 23:14:00,
2013-06-16 19:19:00,76.8,40.3,28.79,North,0,0.0,0.0,27,0.00,,---,0.00,VWS V13.01,2013-06-16 23:19:00,
2013-06-16 19:24:00,76.8,40.3,28.79,North,0,0.0,0.0,27,0.00,,---,0.00,VWS V13.01,2013-06-16 23:24:00,
2013-06-16 19:29:00,76.8,41.3,28.79,North,0,0.0,0.0,28,0.00,,---,0.00,VWS V13.01,2013-06-16 23:29:00,
2013-06-16 19:34:00,76.8,42.2,28.79,North,0,0.0,0.0,29,0.00,,---,0.00,VWS V13.01,2013-06-16 23:34:00,
2013-06-16 19:39:00,76.6,41.1,28.79,North,0,0.0,0.0,28,0.00,,---,0.00,VWS V13.01,2013-06-16 23:39:00,
2013-06-16 19:49:00,76.1,42.5,28.79,North,0,0.0,0.0,30,0.00,,---,0.00,VWS V13.01,2013-06-16 23:49:00,
2013-06-16 19:54:00,75.9,42.3,28.79,North,0,0.0,0.0,30,0.00,,---,0.00,VWS V13.01,2013-06-16 23:54:00,
2013-06-16 19:59:00,75.7,43.0,28.79,North,0,0.0,0.0,31,0.00,,---,0.00,VWS V13.01,2013-06-16 23:59:00,
2013-06-16 20:04:00,75.6,42.8,28.79,North,0,0.0,0.0,31,0.00,,---,0.00,VWS V13.01,2013-06-17 00:04:00,
2013-06-16 20:09:00,75.4,42.7,28.79,North,0,0.0,0.0,31,0.00,,---,0.00,VWS V13.01,2013-06-17 00:09:00,
2013-06-16 20:14:00,75.2,42.5,28.79,North,0,0.0,0.0,31,0.00,,---,0.00,VWS V13.01,2013-06-17 00:14:00,
2013-06-16 20:19:00,75.2,42.5,28.79,North,0,0.0,0.0,31,0.00,,---,0.00,VWS V13.01,2013-06-17 00:19:00,
2013-06-16 20:24:00,75.2,42.5,28.79,North,0,0.0,0.0,31,0.00,,---,0.00,VWS V13.01,2013-06-17 00:24:00,
2013-06-16 20:29:00,75.0,42.4,28.79,North,0,0.0,0.0,31,0.00,,---,0.00,VWS V13.01,2013-06-17 00:29:00,
2013-06-16 20:34:00,75.0,42.4,28.82,North,0,0.0,0.0,31,0.00,,---,0.00,VWS V13.01,2013-06-17 00:34:00,
2013-06-16 20:39:00,75.0,42.4,28.82,North,0,0.0,0.0,31,0.00,,---,0.00,VWS V13.01,2013-06-17 00:39:00,
2013-06-16 20:44:00,75.0,42.4,28.82,North,0,0.0,0.0,31,0.00,,---,0.00,VWS V13.01,2013-06-17 00:44:00,
2013-06-16 20:49:00,75.0,43.2,28.82,North,0,0.0,0.0,32,0.00,,---,0.00,VWS V13.01,2013-06-17 00:49:00,
2013-06-16 20:54:00,74.8,43.0,28.82,North,0,0.0,0.0,32,0.00,,---,0.00,VWS V13.01,2013-06-17 00:54:00,
2013-06-16 20:59:00,74.8,43.0,28.82,North,0,0.0,0.0,32,0.00,,---,0.00,VWS V13.01,2013-06-17 00:59:00,
2013-06-16 21:09:00,74.5,43.5,28.82,North,0,0.0,0.0,33,0.00,,---,0.00,VWS V13.01,2013-06-17 01:09:00,
2013-06-16 21:14:00,74.3,43.4,28.82,North,0,0.0,0.0,33,0.00,,---,0.00,VWS V13.01,2013-06-17 01:14:00,
2013-06-16 21:19:00,74.1,43.2,28.82,North,0,0.0,0.0,33,0.00,,---,0.00,VWS V13.01,2013-06-17 01:19:00,
2013-06-16 21:24:00,73.8,43.7,28.82,North,0,0.0,0.0,34,0.00,,---,0.00,VWS V13.01,2013-06-17 01:24:00,
2013-06-16 21:29:00,73.4,44.1,28.82,North,0,0.0,0.0,35,0.00,,---,0.00,VWS V13.01,2013-06-17 01:29:00,
2013-06-16 21:34:00,72.9,45.8,28.82,North,0,0.0,0.0,38,0.00,,---,0.00,VWS V13.01,2013-06-17 01:34:00,
2013-06-16 21:39:00,72.1,45.2,28.82,North,0,0.0,0.0,38,0.00,,---,0.00,VWS V13.01,2013-06-17 01:39:00,
2013-06-16 21:44:00,71.8,46.8,28.82,North,0,0.0,0.0,41,0.00,,---,0.00,VWS V13.01,2013-06-17 01:44:00,
2013-06-16 21:49:00,71.4,47.2,28.85,North,0,0.0,0.0,42,0.00,,---,0.00,VWS V13.01,2013-06-17 01:49:00,
2013-06-16 21:54:00,71.4,47.2,28.85,North,0,0.0,0.0,42,0.00,,---,0.00,VWS V13.01,2013-06-17 01:54:00,
2013-06-16 21:59:00,71.2,47.0,28.85,North,0,0.0,0.0,42,0.00,,---,0.00,VWS V13.01,2013-06-17 01:59:00,
2013-06-16 22:04:00,71.1,46.8,28.85,North,0,0.0,0.0,42,0.00,,---,0.00,VWS V13.01,2013-06-17 02:04:00,
2013-06-16 22:14:00,70.3,46.8,28.85,North,0,0.0,0.0,43,0.00,,---,0.00,VWS V13.01,2013-06-17 02:14:00,
2013-06-16 22:19:00,70.2,47.8,28.85,North,0,0.0,0.0,45,0.00,,---,0.00,VWS V13.01,2013-06-17 02:19:00,
2013-06-16 22:24:00,69.8,48.1,28.85,North,0,0.0,0.0,46,0.00,,---,0.00,VWS V13.01,2013-06-17 02:24:00,
2013-06-16 22:29:00,69.8,48.1,28.85,North,0,0.0,0.0,46,0.00,,---,0.00,VWS V13.01,2013-06-17 02:29:00,
2013-06-16 22:34:00,70.0,47.7,28.85,North,0,0.0,0.0,45,0.00,,---,0.00,VWS V13.01,2013-06-17 02:34:00,
2013-06-16 22:39:00,70.0,47.7,28.85,North,0,0.0,0.0,45,0.00,,---,0.00,VWS V13.01,2013-06-17 02:39:00,
2013-06-16 22:44:00,69.8,48.1,28.85,North,0,0.0,0.0,46,0.00,,---,0.00,VWS V13.01,2013-06-17 02:44:00,
2013-06-16 22:49:00,69.8,48.1,28.85,North,0,0.0,0.0,46,0.00,,---,0.00,VWS V13.01,2013-06-17 02:49:00,
2013-06-16 22:54:00,69.8,47.5,28.85,North,0,0.0,0.0,45,0.00,,---,0.00,VWS V13.01,2013-06-17 02:54:00,
2013-06-16 23:04:00,69.6,48.0,28.85,North,0,0.0,0.0,46,0.00,,---,0.00,VWS V13.01,2013-06-17 03:04:00,
2013-06-16 23:09:00,69.4,47.8,28.85,North,0,0.0,0.0,46,0.00,,---,0.00,VWS V13.01,2013-06-17 03:09:00,
2013-06-16 23:14:00,69.1,48.6,28.85,North,0,0.0,0.0,48,0.00,,---,0.00,VWS V13.01,2013-06-17 03:14:00,
2013-06-16 23:19:00,68.9,49.5,28.85,North,0,0.0,0.0,50,0.00,,---,0.00,VWS V13.01,2013-06-17 03:19:00,
2013-06-16 23:24:00,68.5,49.7,28.85,North,0,0.0,0.0,51,0.00,,---,0.00,VWS V13.01,2013-06-17 03:24:00,
2013-06-16 23:29:00,68.5,49.7,28.85,North,0,0.0,0.0,51,0.00,,---,0.00,VWS V13.01,2013-06-17 03:29:00,
2013-06-16 23:34:00,68.7,48.3,28.85,North,0,0.0,0.0,48,0.00,,---,0.00,VWS V13.01,2013-06-17 03:34:00,
2013-06-16 23:39:00,69.3,48.2,28.85,North,0,0.0,0.0,47,0.00,,---,0.00,VWS V13.01,2013-06-17 03:39:00,
2013-06-16 23:44:00,69.8,47.5,28.85,North,0,0.0,0.0,45,0.00,,---,0.00,VWS V13.01,2013-06-17 03:44:00,
2013-06-16 23:54:00,69.8,46.9,28.85,North,0,0.0,0.0,44,0.00,,---,0.00,VWS V13.01,2013-06-17 03:54:00,
2013-06-16 23:59:00,69.6,47.4,28.85,North,0,0.0,0.0,45,0.00,,---,0.00,VWS V13.01,2013-06-17 03:59:00,